Terminal Aerodrome Forecast
Issued by NWS

Home | Current Version | Previous Version | Text Only | Print | Product List | Glossary On
Versions: 1 2 3 4 5 6 7 8 9 10 11 12
058
FTUS44 KEPZ 261720
TAFTCS
TAF
KTCS 261720Z 2618/2718 01007KT P6SM SCT120 BKN250
     FM262000 18011KT P6SM VCTS SCT080CB BKN150
     FM270600 27006KT P6SM BKN120
     FM271600 34007KT P6SM FEW130 SCT250=

USA.gov is the U.S. government's official web portal to all federal, state and local government web resources and services.